createdAt,value
2019-03-23T00:00:02.504Z,1027.75
2019-03-23T00:05:02.588Z,1027.8
2019-03-23T00:10:02.990Z,1027.9
2019-03-23T00:15:02.453Z,1027.95
2019-03-23T00:20:02.850Z,1028.0
2019-03-23T00:25:03.303Z,1028.09
2019-03-23T00:30:02.725Z,1028.15
2019-03-23T00:35:03.176Z,1028.27
2019-03-23T00:40:02.678Z,1028.36
2019-03-23T00:45:03.029Z,1028.39
2019-03-23T00:50:02.491Z,1028.46
2019-03-23T00:55:02.882Z,1028.46
2019-03-23T01:00:03.340Z,1028.42
2019-03-23T01:05:03.203Z,1028.44
2019-03-23T01:10:02.684Z,1028.43
2019-03-23T01:15:03.094Z,1028.45
2019-03-23T01:20:02.505Z,1028.44
2019-03-23T01:25:02.852Z,1028.38
2019-03-23T01:30:03.293Z,1028.39
2019-03-23T01:35:02.714Z,1028.51
2019-03-23T01:40:03.150Z,1028.45
2019-03-23T01:45:02.519Z,1028.31
2019-03-23T01:50:02.920Z,1028.3
2019-03-23T01:55:03.366Z,1028.22
2019-03-23T02:00:02.768Z,1028.15
2019-03-23T02:05:03.118Z,1028.15
2019-03-23T02:10:02.517Z,1028.18
2019-03-23T02:15:02.886Z,1028.19
2019-03-23T02:20:03.318Z,1028.21
2019-03-23T02:25:02.739Z,1028.21
2019-03-23T02:30:03.077Z,1028.23
2019-03-23T02:35:02.501Z,1028.29
2019-03-23T02:40:02.957Z,1028.3
2019-03-23T02:45:02.362Z,1028.4
2019-03-23T02:50:02.845Z,1028.41
2019-03-23T02:55:03.251Z,1028.4
2019-03-23T03:00:02.711Z,1028.45
2019-03-23T03:05:03.065Z,1028.29
2019-03-23T03:10:02.573Z,1028.38
2019-03-23T03:15:02.991Z,1028.38
2019-03-23T03:20:02.431Z,1028.51
2019-03-23T03:25:02.886Z,1028.51
2019-03-23T03:30:03.288Z,1028.45
2019-03-23T03:35:02.755Z,1028.47
2019-03-23T03:40:03.249Z,1028.51
2019-03-23T03:45:02.708Z,1028.52
2019-03-23T03:50:03.122Z,1028.48
2019-03-23T03:55:02.452Z,1028.54
2019-03-23T04:00:02.887Z,1028.38
2019-03-23T04:05:02.412Z,1028.44
2019-03-23T04:10:02.833Z,1028.42
2019-03-23T04:15:03.153Z,1028.51
2019-03-23T04:20:02.600Z,1028.52
2019-03-23T04:25:03.040Z,1028.61
2019-03-23T04:30:02.470Z,1028.61
2019-03-23T04:35:02.901Z,1028.65
2019-03-23T04:40:02.317Z,1028.64
2019-03-23T04:45:02.656Z,1028.78
2019-03-23T04:50:03.001Z,1028.73
2019-03-23T04:55:02.448Z,1028.8
2019-03-23T05:00:02.778Z,1028.82
2019-03-23T05:05:03.313Z,1028.89
2019-03-23T05:10:02.722Z,1029.04
2019-03-23T05:15:03.173Z,1029.07
2019-03-23T05:20:02.590Z,1029.1
2019-03-23T05:25:03.029Z,1029.15
2019-03-23T05:30:02.856Z,1029.17
2019-03-23T05:35:03.305Z,1029.2
2019-03-23T05:40:02.723Z,1029.25
2019-03-23T05:45:03.166Z,1029.33
2019-03-23T05:50:02.528Z,1029.33
2019-03-23T05:55:02.861Z,1029.47
2019-03-23T06:00:03.371Z,1029.46
2019-03-23T06:05:02.798Z,1029.51
2019-03-23T06:10:03.240Z,1029.43
2019-03-23T06:15:02.659Z,1029.41
2019-03-23T06:20:04.692Z,1029.43
2019-03-23T06:25:03.234Z,1029.42
2019-03-23T06:30:02.697Z,1029.48
2019-03-23T06:35:03.447Z,1029.52
2019-03-23T06:40:03.004Z,1029.41
2019-03-23T06:45:02.341Z,1029.43
2019-03-23T06:50:02.881Z,1029.47
2019-03-23T06:55:03.333Z,1029.41
2019-03-23T07:00:02.670Z,1029.42
2019-03-23T07:05:03.133Z,1029.44
2019-03-23T07:10:06.730Z,1029.56
2019-03-23T07:15:03.162Z,1029.53
2019-03-23T07:20:02.502Z,1029.52
2019-03-23T07:25:02.838Z,1029.58
2019-03-23T07:30:03.370Z,1029.58
2019-03-23T07:35:02.781Z,1029.54
2019-03-23T07:40:03.220Z,1029.65
2019-03-23T07:45:02.646Z,1029.69
2019-03-23T07:50:02.987Z,1029.66
2019-03-23T07:55:02.406Z,1029.77
2019-03-23T08:00:02.842Z,1029.8
2019-03-23T08:05:03.232Z,1029.86
2019-03-23T08:10:02.071Z,1029.89
2019-03-23T08:15:02.565Z,1029.95
2019-03-23T08:20:03.115Z,1029.92
2019-03-23T08:25:02.539Z,1029.92
2019-03-23T08:30:03.086Z,1029.94
2019-03-23T08:35:02.463Z,1030.0
2019-03-23T08:40:02.952Z,1030.13
2019-03-23T08:45:03.350Z,1030.1
2019-03-23T08:50:02.802Z,1030.17
2019-03-23T08:55:07.362Z,1030.2
2019-03-23T09:00:02.735Z,1030.18
2019-03-23T09:05:03.186Z,1030.21
2019-03-23T09:10:02.896Z,1030.24
2019-03-23T09:15:03.282Z,1030.19
2019-03-23T09:20:03.102Z,1030.18
2019-03-23T09:25:02.469Z,1030.22
2019-03-23T09:30:03.166Z,1030.22
2019-03-23T09:35:02.528Z,1030.26
2019-03-23T09:40:10.802Z,1030.3
2019-03-23T09:45:04.559Z,1030.35
2019-03-23T09:50:02.985Z,1030.42
2019-03-23T09:55:02.370Z,1030.44
2019-03-23T10:00:02.802Z,1030.5
2019-03-23T10:05:05.559Z,1030.43
2019-03-23T10:10:03.015Z,1030.43
2019-03-23T10:15:02.407Z,1030.55
2019-03-23T10:20:02.835Z,1030.57
2019-03-23T10:25:03.319Z,1030.47
2019-03-23T10:30:02.716Z,1030.47
2019-03-23T10:35:03.194Z,1030.47
2019-03-23T10:40:01.879Z,1030.53
2019-03-23T10:45:05.406Z,1030.48
2019-03-23T10:50:02.789Z,1030.56
2019-03-23T10:55:03.211Z,1030.5
2019-03-23T11:00:02.599Z,1030.47
2019-03-23T11:05:03.078Z,1030.46
2019-03-23T11:10:02.554Z,1030.38
2019-03-23T11:15:03.035Z,1030.45
2019-03-23T11:20:02.414Z,1030.55
2019-03-23T11:25:02.820Z,1030.49
2019-03-23T11:30:03.248Z,1030.5
2019-03-23T11:35:02.723Z,1030.62
2019-03-23T11:40:03.365Z,1030.62
2019-03-23T11:45:02.700Z,1030.72
2019-03-23T11:50:03.135Z,1030.64
2019-03-23T11:55:02.538Z,1030.68
2019-03-23T12:00:02.893Z,1030.65
2019-03-23T12:05:03.243Z,1030.67
2019-03-23T12:10:02.747Z,1030.66
2019-03-23T12:15:03.093Z,1030.75
2019-03-23T12:20:02.522Z,1030.76
2019-03-23T12:25:03.058Z,1030.76
2019-03-23T12:30:07.095Z,1030.66
2019-03-23T12:35:03.038Z,1030.73
2019-03-23T12:40:06.616Z,1030.67
2019-03-23T12:45:03.097Z,1030.72
2019-03-23T12:50:02.521Z,1030.73
2019-03-23T12:55:03.065Z,1030.72
2019-03-23T13:00:02.469Z,1030.71
2019-03-23T13:05:04.140Z,1030.68
2019-03-23T13:10:02.635Z,1030.72
2019-03-23T13:15:02.145Z,1030.7
2019-03-23T13:20:02.511Z,1030.71
2019-03-23T13:25:02.939Z,1030.77
2019-03-23T13:30:03.281Z,1030.71
2019-03-23T13:35:02.605Z,1030.72
2019-03-23T13:40:03.049Z,1030.78
2019-03-23T13:45:02.460Z,1030.76
2019-03-23T13:50:02.797Z,1030.81
2019-03-23T13:55:03.128Z,1030.78
2019-03-23T14:00:02.558Z,1030.79
2019-03-23T14:05:02.904Z,1030.66
2019-03-23T14:10:03.353Z,1030.64
2019-03-23T14:15:02.768Z,1030.62
2019-03-23T14:20:03.238Z,1030.57
2019-03-23T14:25:02.622Z,1030.61
2019-03-23T14:30:03.984Z,1030.62
2019-03-23T14:35:02.484Z,1030.7
2019-03-23T14:40:02.938Z,1030.62
2019-03-23T14:45:03.389Z,1030.62
2019-03-23T14:50:02.784Z,1030.65
2019-03-23T14:55:03.454Z,1030.63
2019-03-23T15:00:02.856Z,1030.64
2019-03-23T15:05:03.300Z,1030.62
2019-03-23T15:10:02.719Z,1030.67
2019-03-23T15:15:03.064Z,1030.89
2019-03-23T15:20:02.495Z,1030.92
2019-03-23T15:25:03.033Z,1030.89
2019-03-23T15:30:02.399Z,1030.81
2019-03-23T15:35:02.787Z,1030.89
2019-03-23T15:40:03.235Z,1030.92
2019-03-23T15:45:02.639Z,1030.88
2019-03-23T15:50:02.986Z,1030.97
2019-03-23T15:55:03.423Z,1030.92
2019-03-23T16:00:02.946Z,1030.9
2019-03-23T16:05:03.297Z,1030.98
2019-03-23T16:10:02.821Z,1030.91
2019-03-23T16:15:03.151Z,1030.93
2019-03-23T16:20:02.580Z,1030.92
2019-03-23T16:25:03.036Z,1030.92
2019-03-23T16:30:02.431Z,1030.94
2019-03-23T16:35:02.775Z,1030.92
2019-03-23T16:40:02.440Z,1030.84
2019-03-23T16:45:02.834Z,1030.86
2019-03-23T16:50:03.187Z,1030.85
2019-03-23T16:55:02.597Z,1030.88
2019-03-23T17:00:03.036Z,1030.93
2019-03-23T17:05:02.578Z,1030.84
2019-03-23T17:10:03.026Z,1030.86
2019-03-23T17:15:06.553Z,1030.9
2019-03-23T17:20:02.972Z,1030.86
2019-03-23T17:25:02.306Z,1030.92
2019-03-23T17:30:02.656Z,1031.01
2019-03-23T17:35:03.091Z,1030.98
2019-03-23T17:40:01.791Z,1030.88
2019-03-23T17:45:03.354Z,1031.01
2019-03-23T17:50:02.963Z,1030.9
2019-03-23T17:55:02.388Z,1030.99
2019-03-23T18:00:02.840Z,1031.01
2019-03-23T18:05:03.279Z,1031.06
2019-03-23T18:10:02.697Z,1031.07
2019-03-23T18:15:03.145Z,1031.06
2019-03-23T18:20:02.556Z,1031.15
2019-03-23T18:25:02.898Z,1031.16
2019-03-23T18:30:03.337Z,1031.18
2019-03-23T18:35:03.300Z,1031.25
2019-03-23T18:40:02.758Z,1031.35
2019-03-23T18:45:03.142Z,1031.34
2019-03-23T18:50:02.554Z,1031.44
2019-03-23T18:55:02.893Z,1031.51
2019-03-23T19:00:03.238Z,1031.53
2019-03-23T19:05:02.559Z,1031.51
2019-03-23T19:10:03.000Z,1031.5
2019-03-23T19:15:02.411Z,1031.52
2019-03-23T19:20:02.880Z,1031.56
2019-03-23T19:25:03.308Z,1031.43
2019-03-23T19:30:02.713Z,1031.55
2019-03-23T19:35:03.070Z,1031.56
2019-03-23T19:40:02.508Z,1031.63
2019-03-23T19:45:02.929Z,1031.56
2019-03-23T19:50:03.289Z,1031.59
2019-03-23T19:55:02.698Z,1031.61
2019-03-23T20:00:03.231Z,1031.6
2019-03-23T20:05:02.743Z,1031.59
2019-03-23T20:10:02.418Z,1031.63
2019-03-23T20:15:02.824Z,1031.69
2019-03-23T20:20:03.263Z,1031.69
2019-03-23T20:25:02.617Z,1031.77
2019-03-23T20:30:03.020Z,1031.82
2019-03-23T20:35:02.453Z,1031.85
2019-03-23T20:40:02.857Z,1031.77
2019-03-23T20:45:03.251Z,1031.74
2019-03-23T20:50:02.644Z,1031.8
2019-03-23T20:55:02.995Z,1031.77
2019-03-23T21:00:02.397Z,1031.78
2019-03-23T21:05:02.767Z,1031.7
2019-03-23T21:10:03.196Z,1031.77
2019-03-23T21:15:02.606Z,1031.69
2019-03-23T21:20:02.947Z,1031.67
2019-03-23T21:25:03.391Z,1031.66
2019-03-23T21:30:02.809Z,1031.71
2019-03-23T21:35:03.353Z,1031.65
2019-03-23T21:40:02.772Z,1031.68
2019-03-23T21:45:03.115Z,1031.67
2019-03-23T21:50:02.641Z,1031.66
2019-03-23T21:55:02.970Z,1031.65
2019-03-23T22:00:02.295Z,1031.56
2019-03-23T22:05:02.714Z,1031.59
2019-03-23T22:10:03.213Z,1031.64
2019-03-23T22:15:02.598Z,1031.61
2019-03-23T22:20:02.945Z,1031.57
2019-03-23T22:25:03.295Z,1031.48
2019-03-23T22:30:02.695Z,1031.41
2019-03-23T22:35:03.152Z,1031.52
2019-03-23T22:40:02.529Z,1031.5
2019-03-23T22:45:03.236Z,1031.5
2019-03-23T22:50:02.563Z,1031.56
2019-03-23T22:55:02.919Z,1031.47
2019-03-23T23:00:03.309Z,1031.44
2019-03-23T23:05:02.778Z,1031.32
2019-03-23T23:10:03.176Z,1031.38
2019-03-23T23:15:04.874Z,1031.26
2019-03-23T23:20:02.563Z,1031.27
2019-03-23T23:25:02.970Z,1031.29
2019-03-23T23:30:03.317Z,1031.29
2019-03-23T23:35:02.727Z,1031.23
2019-03-23T23:40:03.168Z,1031.25
2019-03-23T23:45:02.515Z,1031.16
2019-03-23T23:50:02.931Z,1031.12
2019-03-23T23:55:03.267Z,1031.27
